Time;durP1;ratioP1;P1;durP2;ratioP2;P2;SDS_P1;SDS_P2;PMS_P1;PMS_P2;Temp;Humidity;BMP_temperature;BMP_pressure;BME280_temperature;BME280_humidity;BME280_pressure;Samples;Min_cycle;Max_cycle;Signal;HPM_P1;HPM_P2
2022/06/12 00:03:26;;;;;;;6.82;3.40;;;20.10;95.20;;;;;;6941931;28;20041;-79
2022/06/12 00:06:49;;;;;;;7.75;3.45;;;19.90;95.10;;;;;;6941952;28;20053;-79
2022/06/12 00:10:13;;;;;;;7.25;3.67;;;19.80;95.50;;;;;;6937914;28;20053;-79
2022/06/12 00:13:40;;;;;;;6.97;3.15;;;19.70;95.50;;;;;;6937741;28;20053;-79
2022/06/12 00:17:02;;;;;;;5.68;3.30;;;19.70;95.70;;;;;;6938361;28;20562;-78
2022/06/12 00:20:26;;;;;;;6.60;3.40;;;19.60;95.80;;;;;;6939982;28;20069;-78
2022/06/12 00:23:53;;;;;;;5.72;3.72;;;19.40;95.90;;;;;;6941167;28;20068;-78
2022/06/12 00:27:15;;;;;;;4.75;3.08;;;19.40;96.10;;;;;;6944206;28;20146;-79
2022/06/12 00:30:38;;;;;;;5.45;3.10;;;19.30;96.40;;;;;;6946688;28;20053;-77
2022/06/12 00:34:02;;;;;;;5.88;3.08;;;19.30;96.50;;;;;;6944162;28;20139;-79
2022/06/12 00:37:27;;;;;;;7.85;3.63;;;19.30;96.30;;;;;;6946904;28;20045;-79
2022/06/12 00:40:51;;;;;;;8.13;3.65;;;19.20;96.60;;;;;;6946384;28;20080;-79
2022/06/12 00:44:18;;;;;;;6.50;3.40;;;19.20;96.70;;;;;;6942393;28;20411;-79
2022/06/12 00:47:40;;;;;;;6.05;3.53;;;19.20;96.80;;;;;;6946130;28;20053;-80
2022/06/12 00:51:07;;;;;;;5.40;3.05;;;19.00;97.00;;;;;;6946101;28;20053;-79
2022/06/12 00:54:31;;;;;;;6.95;3.22;;;19.00;97.20;;;;;;6943881;28;20095;-78
2022/06/12 00:58:03;;;;;;;5.82;3.53;;;18.90;97.30;;;;;;6944781;28;20099;-79
2022/06/12 01:01:30;;;;;;;5.95;3.33;;;18.80;97.60;;;;;;6945900;28;20050;-77
2022/06/12 01:08:34;;;;;;;6.30;3.00;;;18.90;97.50;;;;;;6946063;28;20053;-77
2022/06/12 01:11:59;;;;;;;5.68;3.45;;;18.80;97.70;;;;;;6943474;28;20515;-78
2022/06/12 01:15:27;;;;;;;5.28;3.08;;;18.80;97.50;;;;;;6945595;28;20103;-80
2022/06/12 01:18:53;;;;;;;5.35;3.20;;;18.80;97.60;;;;;;6942577;28;20052;-78
2022/06/12 01:22:51;;;;;;;7.05;3.90;;;18.70;97.70;;;;;;6943052;28;20479;-79
2022/06/12 01:26:36;;;;;;;8.80;4.45;;;18.60;98.10;;;;;;6889900;28;20073;-80
2022/06/12 01:30:10;;;;;;;6.72;3.20;;;18.60;98.00;;;;;;6920943;28;20064;-79
2022/06/12 01:33:40;;;;;;;5.97;3.63;;;18.40;97.90;;;;;;6945005;28;20045;-79
2022/06/12 01:37:17;;;;;;;5.30;3.15;;;18.20;98.20;;;;;;6944960;28;20135;-79
2022/06/12 01:40:52;;;;;;;6.60;3.72;;;18.10;98.60;;;;;;6943278;28;20096;-78
2022/06/12 01:44:23;;;;;;;8.70;3.33;;;18.10;99.00;;;;;;6944924;28;20080;-78
2022/06/12 01:47:56;;;;;;;6.28;3.70;;;18.10;99.10;;;;;;6945016;28;20518;-79
2022/06/12 01:51:30;;;;;;;8.07;4.18;;;18.10;99.20;;;;;;6943769;28;20527;-78
2022/06/12 01:54:59;;;;;;;4.88;3.20;;;18.10;99.10;;;;;;6944661;28;20503;-78
2022/06/12 01:58:30;;;;;;;4.65;3.20;;;18.00;99.20;;;;;;6945242;28;20078;-79
2022/06/12 02:01:58;;;;;;;6.18;3.30;;;17.90;99.50;;;;;;6948150;28;20041;-79
2022/06/12 02:05:28;;;;;;;8.20;3.42;;;17.80;99.70;;;;;;6944934;28;20045;-79
2022/06/12 02:08:55;;;;;;;6.75;3.20;;;17.90;99.80;;;;;;6944803;28;20044;-77
2022/06/12 02:16:08;;;;;;;6.82;3.28;;;17.80;99.60;;;;;;6946940;28;20057;-80
2022/06/12 02:19:36;;;;;;;7.07;3.30;;;17.80;99.80;;;;;;6944054;28;20096;-80
2022/06/12 02:23:02;;;;;;;5.88;3.35;;;17.80;99.90;;;;;;6944011;28;20053;-80
2022/06/12 02:26:29;;;;;;;6.97;3.42;;;17.80;99.90;;;;;;6943983;28;20470;-78
2022/06/12 02:29:56;;;;;;;6.78;3.58;;;17.80;99.90;;;;;;6942440;28;20045;-78
2022/06/12 02:33:24;;;;;;;4.97;3.22;;;17.70;99.90;;;;;;6941809;28;20049;-78
2022/06/12 02:36:51;;;;;;;7.05;3.65;;;17.70;99.90;;;;;;6943520;28;20060;-80
2022/06/12 02:40:21;;;;;;;5.80;3.67;;;17.70;99.90;;;;;;6942347;28;20079;-80
2022/06/12 02:43:45;;;;;;;5.13;3.08;;;17.60;99.90;;;;;;6943443;28;20180;-78
2022/06/12 02:47:11;;;;;;;6.03;3.50;;;17.50;99.90;;;;;;6942492;28;20057;-79
2022/06/12 02:50:42;;;;;;;6.57;3.67;;;17.50;99.90;;;;;;6940472;28;20407;-78
2022/06/12 02:54:16;;;;;;;5.55;3.40;;;17.60;99.90;;;;;;6941928;28;20087;-79
2022/06/12 02:57:51;;;;;;;5.32;3.40;;;17.60;99.90;;;;;;6942182;28;20073;-78
2022/06/12 03:01:17;;;;;;;49.17;24.85;;;17.50;99.90;;;;;;6941559;28;20052;-77
2022/06/12 03:04:46;;;;;;;39.35;19.95;;;17.50;99.90;;;;;;6941235;28;20091;-80
2022/06/12 03:08:16;;;;;;;16.80;9.63;;;17.50;99.90;;;;;;6942888;28;20080;-80
2022/06/12 03:11:44;;;;;;;35.72;19.38;;;17.50;99.90;;;;;;6941855;28;20049;-79
2022/06/12 03:15:40;;;;;;;8.57;4.72;;;17.40;99.90;;;;;;6943053;28;20080;-80
2022/06/12 03:19:09;;;;;;;6.95;3.80;;;17.40;99.90;;;;;;6940358;28;20045;-81
2022/06/12 03:22:44;;;;;;;7.90;3.70;;;17.30;99.90;;;;;;6941637;28;20056;-81
2022/06/12 03:26:11;;;;;;;6.07;3.35;;;17.30;99.90;;;;;;6942670;28;20072;-80
2022/06/12 03:29:44;;;;;;;5.80;3.58;;;17.20;99.90;;;;;;6939998;28;20232;-79
2022/06/12 03:33:29;;;;;;;4.63;3.22;;;17.20;99.90;;;;;;6942444;28;20050;-79
2022/06/12 03:36:58;;;;;;;7.18;3.33;;;17.10;99.90;;;;;;6943876;28;20060;-77
2022/06/12 03:40:31;;;;;;;5.65;3.45;;;17.00;99.90;;;;;;6941869;28;20093;-81
2022/06/12 03:44:00;;;;;;;6.88;3.15;;;16.80;99.90;;;;;;6941710;28;20099;-80
2022/06/12 03:47:30;;;;;;;5.88;3.28;;;16.80;99.90;;;;;;6940396;28;20053;-79
2022/06/12 03:51:06;;;;;;;6.20;3.22;;;16.60;99.90;;;;;;6941277;28;20045;-77
2022/06/12 03:54:39;;;;;;;4.80;3.10;;;16.60;99.90;;;;;;6940798;28;20045;-81
2022/06/12 03:58:00;;;;;;;6.93;3.10;;;16.70;99.90;;;;;;6945866;28;20053;-78
2022/06/12 04:01:24;;;;;;;5.85;3.30;;;16.80;99.90;;;;;;6946169;28;20046;-77
2022/06/12 04:04:49;;;;;;;7.13;3.30;;;16.80;99.90;;;;;;6947572;28;20050;-79
2022/06/12 04:08:21;;;;;;;5.45;3.22;;;16.90;99.90;;;;;;6945746;28;20054;-79
2022/06/12 04:11:49;;;;;;;6.07;3.47;;;17.00;99.90;;;;;;6946050;28;20242;-80
2022/06/12 04:15:17;;;;;;;5.10;3.30;;;17.00;99.90;;;;;;6947132;28;20556;-80
2022/06/12 04:18:39;;;;;;;5.53;3.30;;;17.00;99.90;;;;;;6948622;28;20491;-79
2022/06/12 04:22:07;;;;;;;5.65;3.25;;;17.10;99.90;;;;;;6945872;28;20042;-79
2022/06/12 04:25:38;;;;;;;4.68;3.40;;;17.20;99.90;;;;;;6947369;28;20507;-79
2022/06/12 04:29:05;;;;;;;5.82;3.95;;;17.30;99.90;;;;;;6945449;28;20041;-79
2022/06/12 04:32:30;;;;;;;5.93;4.20;;;17.30;99.90;;;;;;6945037;28;20502;-77
2022/06/12 04:35:56;;;;;;;8.90;5.00;;;17.30;99.90;;;;;;6947273;28;20141;-79
2022/06/12 04:39:22;;;;;;;7.97;4.65;;;17.30;99.90;;;;;;6943401;28;20092;-78
2022/06/12 04:42:45;;;;;;;5.80;4.07;;;17.30;99.90;;;;;;6946354;28;20046;-80
2022/06/12 04:46:07;;;;;;;6.10;3.50;;;17.40;99.90;;;;;;6946561;28;20049;-79
2022/06/12 04:49:33;;;;;;;6.20;3.22;;;17.50;99.90;;;;;;6942281;28;20525;-79
2022/06/12 04:52:55;;;;;;;5.53;3.20;;;17.50;99.90;;;;;;6946252;28;20527;-79
2022/06/12 04:56:19;;;;;;;5.57;3.00;;;17.60;99.90;;;;;;6943503;28;20806;-80
2022/06/12 04:59:44;;;;;;;4.20;2.90;;;17.60;99.90;;;;;;6942277;28;20092;-79
2022/06/12 05:03:06;;;;;;;5.47;3.10;;;17.50;99.90;;;;;;6935146;28;20514;-79
2022/06/12 05:06:30;;;;;;;5.05;3.10;;;17.40;99.90;;;;;;6918641;28;20057;-79
2022/06/12 05:09:52;;;;;;;5.90;2.92;;;17.50;99.90;;;;;;6936604;28;20049;-81
2022/06/12 05:13:15;;;;;;;6.00;3.17;;;17.50;99.90;;;;;;6922135;28;20089;-80
2022/06/12 05:16:43;;;;;;;4.75;2.83;;;17.60;99.90;;;;;;6925146;28;20085;-80
2022/06/12 05:20:07;;;;;;;5.70;3.00;;;17.70;99.90;;;;;;6931225;28;20069;-79
2022/06/12 05:23:29;;;;;;;6.55;2.80;;;17.80;99.90;;;;;;6932285;28;20529;-79
2022/06/12 05:26:52;;;;;;;6.97;2.85;;;17.90;99.90;;;;;;6931710;28;20127;-79
2022/06/12 05:30:21;;;;;;;4.85;3.00;;;17.90;99.90;;;;;;6945295;28;20499;-79
2022/06/12 05:33:45;;;;;;;5.20;2.80;;;17.90;99.90;;;;;;6935268;28;20504;-79
2022/06/12 05:37:07;;;;;;;6.38;3.03;;;17.90;99.90;;;;;;6940454;28;20136;-78
2022/06/12 05:40:34;;;;;;;4.57;2.83;;;18.00;99.90;;;;;;6933059;28;20061;-79
2022/06/12 05:43:57;;;;;;;6.70;3.30;;;18.00;99.90;;;;;;6922143;28;20077;-76
2022/06/12 05:47:19;;;;;;;5.68;3.08;;;18.00;99.80;;;;;;6931125;28;20060;-76
2022/06/12 05:50:50;;;;;;;5.35;2.88;;;18.10;99.90;;;;;;6944717;28;20487;-79
2022/06/12 05:54:12;;;;;;;4.10;2.67;;;18.20;99.90;;;;;;6942694;28;20064;-79
2022/06/12 05:57:34;;;;;;;5.22;3.25;;;18.20;99.80;;;;;;6935408;28;20112;-75
2022/06/12 06:00:57;;;;;;;4.80;2.58;;;18.30;99.70;;;;;;6920123;28;20132;-77
2022/06/12 06:04:19;;;;;;;5.93;2.90;;;18.40;99.90;;;;;;6921991;28;20480;-80
2022/06/12 06:07:44;;;;;;;6.15;2.80;;;18.50;99.90;;;;;;6916574;28;20188;-78
2022/06/12 06:11:07;;;;;;;6.53;2.90;;;18.60;99.70;;;;;;6916434;28;20408;-78
2022/06/12 06:14:30;;;;;;;5.13;2.75;;;18.60;99.60;;;;;;6936188;28;20049;-79
2022/06/12 06:17:53;;;;;;;4.28;2.60;;;18.70;99.70;;;;;;6941184;28;20110;-78
2022/06/12 06:21:16;;;;;;;7.10;2.90;;;18.70;99.40;;;;;;6941793;28;20376;-80
2022/06/12 06:24:39;;;;;;;4.82;2.55;;;18.70;99.10;;;;;;6925720;28;20475;-78
2022/06/12 06:28:02;;;;;;;5.07;2.50;;;18.80;99.50;;;;;;6915383;28;20042;-79
2022/06/12 06:31:25;;;;;;;4.72;2.58;;;18.90;99.20;;;;;;6924434;28;20077;-78
2022/06/12 06:34:49;;;;;;;5.80;2.38;;;19.00;99.30;;;;;;6938143;28;20091;-77
2022/06/12 06:38:11;;;;;;;4.38;2.63;;;19.10;99.20;;;;;;6921650;28;20057;-78
2022/06/12 06:41:34;;;;;;;4.50;2.63;;;19.10;99.00;;;;;;6924829;28;20483;-79
2022/06/12 06:48:36;;;;;;;4.25;2.70;;;19.30;98.70;;;;;;6918539;28;20049;-79
2022/06/12 06:51:58;;;;;;;4.38;2.53;;;19.30;98.90;;;;;;6941538;28;20042;-79
2022/06/12 06:55:21;;;;;;;5.35;2.55;;;19.40;99.10;;;;;;6915516;28;20050;-78
2022/06/12 06:58:45;;;;;;;4.32;2.50;;;19.50;99.10;;;;;;6918355;28;20150;-80
2022/06/12 07:02:08;;;;;;;4.38;2.60;;;19.60;99.40;;;;;;6912962;28;20057;-78
2022/06/12 07:05:30;;;;;;;4.05;2.55;;;19.70;99.10;;;;;;6919907;28;20068;-78
2022/06/12 07:08:52;;;;;;;5.07;2.60;;;19.80;99.50;;;;;;6942122;28;20058;-78
2022/06/12 07:12:14;;;;;;;7.30;3.38;;;19.80;98.90;;;;;;6944000;28;20087;-77
2022/06/12 07:15:38;;;;;;;4.38;2.65;;;20.00;98.20;;;;;;6924954;28;20050;-80
2022/06/12 07:19:01;;;;;;;4.22;2.47;;;20.10;97.80;;;;;;6915281;28;20088;-78
2022/06/12 07:22:23;;;;;;;6.47;2.53;;;20.20;96.80;;;;;;6913384;28;20081;-78
2022/06/12 07:25:52;;;;;;;5.53;2.70;;;20.30;95.20;;;;;;6915013;28;20077;-79
2022/06/12 07:29:15;;;;;;;4.15;2.30;;;20.40;95.20;;;;;;6921116;28;20080;-79
2022/06/12 07:32:39;;;;;;;6.82;2.70;;;20.50;95.60;;;;;;6910755;28;20129;-80
2022/06/12 07:36:01;;;;;;;6.25;2.80;;;20.60;95.20;;;;;;6907613;28;20054;-78
2022/06/12 07:39:29;;;;;;;4.82;2.72;;;20.60;95.90;;;;;;6926571;28;20068;-78
2022/06/12 07:42:51;;;;;;;6.78;2.55;;;20.80;95.60;;;;;;6938037;28;20119;-80
2022/06/12 07:46:18;;;;;;;6.10;2.38;;;20.90;95.80;;;;;;6934980;28;20088;-79
2022/06/12 07:49:41;;;;;;;4.72;2.60;;;21.00;95.90;;;;;;6925023;28;20074;-78
2022/06/12 07:53:03;;;;;;;6.05;2.95;;;21.00;95.10;;;;;;6928219;28;20057;-78
2022/06/12 07:56:26;;;;;;;5.63;3.00;;;21.10;95.30;;;;;;6935246;28;20499;-78
2022/06/12 07:59:48;;;;;;;4.90;2.97;;;21.20;95.40;;;;;;6942582;28;20053;-81
2022/06/12 08:03:10;;;;;;;4.97;2.92;;;21.30;95.30;;;;;;6926080;28;20492;-78
2022/06/12 08:06:35;;;;;;;5.95;2.60;;;21.30;95.20;;;;;;6918300;28;20057;-78
2022/06/12 08:09:57;;;;;;;5.80;3.10;;;21.40;94.70;;;;;;6933729;28;20053;-78
2022/06/12 08:13:19;;;;;;;6.38;2.75;;;21.50;94.10;;;;;;6934296;28;20131;-79
2022/06/12 08:16:42;;;;;;;12.90;3.55;;;21.60;94.30;;;;;;6943492;28;20054;-80
2022/06/12 08:23:51;;;;;;;4.93;2.80;;;21.80;94.00;;;;;;6919153;28;20499;-79
2022/06/12 08:27:13;;;;;;;5.75;2.45;;;21.90;92.20;;;;;;6938463;28;20049;-79
2022/06/12 08:30:35;;;;;;;4.93;2.70;;;21.90;91.80;;;;;;6922316;28;20537;-77
2022/06/12 08:34:05;;;;;;;4.85;2.60;;;22.00;92.60;;;;;;6932634;28;20488;-78
2022/06/12 08:37:32;;;;;;;4.60;2.70;;;22.10;92.40;;;;;;6939198;28;20076;-78
2022/06/12 08:41:05;;;;;;;6.63;2.70;;;22.10;91.50;;;;;;6935706;28;20048;-79
2022/06/12 08:44:33;;;;;;;5.35;2.90;;;22.20;93.00;;;;;;6943795;28;20056;-77
2022/06/12 08:48:04;;;;;;;6.60;2.80;;;22.30;93.10;;;;;;6946420;28;20084;-79
2022/06/12 08:51:33;;;;;;;7.28;2.90;;;22.30;92.50;;;;;;6946409;28;20057;-77
2022/06/12 08:55:06;;;;;;;7.20;2.95;;;22.40;92.50;;;;;;6950460;28;20050;-77
2022/06/12 08:58:39;;;;;;;6.10;3.25;;;22.50;91.80;;;;;;6955801;28;20053;-79
2022/06/12 09:02:03;;;;;;;7.13;2.97;;;22.60;92.00;;;;;;6949805;28;20046;-75
2022/06/12 09:05:47;;;;;;;4.20;2.45;;;22.60;91.90;;;;;;6948258;28;20488;-79
2022/06/12 09:09:22;;;;;;;7.32;2.88;;;22.70;91.00;;;;;;6946997;28;20529;-76
2022/06/12 09:12:51;;;;;;;6.20;2.20;;;22.80;89.00;;;;;;6947226;28;20046;-77
2022/06/12 09:16:26;;;;;;;3.92;2.30;;;22.90;85.30;;;;;;6947407;28;20049;-78
2022/06/12 09:20:03;;;;;;;6.03;2.47;;;23.00;84.70;;;;;;6946463;28;20136;-77
2022/06/12 09:23:37;;;;;;;5.85;2.58;;;23.10;83.40;;;;;;6945503;28;20133;-78
2022/06/12 09:27:06;;;;;;;4.70;2.50;;;23.20;84.30;;;;;;6945657;28;20060;-79
2022/06/12 09:30:39;;;;;;;6.35;2.65;;;23.20;84.60;;;;;;6945297;28;20056;-77
2022/06/12 09:34:08;;;;;;;;;;;23.30;84.80;;;;;;6945536;28;20124;-79
2022/06/12 09:41:50;;;;;;;4.68;2.65;;;23.50;83.90;;;;;;6945323;28;20049;-80
2022/06/12 09:45:24;;;;;;;5.43;2.67;;;23.50;82.60;;;;;;6964851;28;20042;-79
2022/06/12 09:49:17;;;;;;;5.13;2.38;;;23.70;83.00;;;;;;6946189;28;20146;-79
2022/06/12 09:52:57;;;;;;;4.15;2.22;;;23.70;84.20;;;;;;6946155;28;20143;-79
2022/06/12 09:56:28;;;;;;;4.88;2.30;;;23.80;82.50;;;;;;6946185;28;20056;-78
2022/06/12 09:59:59;;;;;;;6.13;2.60;;;24.00;82.60;;;;;;6948328;28;20043;-79
2022/06/12 10:03:31;;;;;;;4.70;2.35;;;24.00;83.10;;;;;;6944668;28;20536;-79
2022/06/12 10:07:05;;;;;;;4.30;2.13;;;24.00;81.50;;;;;;6944578;28;20052;-79
2022/06/12 10:10:39;;;;;;;9.32;2.35;;;24.10;81.00;;;;;;6944231;28;20046;-79
2022/06/12 10:14:08;;;;;;;5.80;2.20;;;24.20;78.90;;;;;;6944457;28;20091;-79
2022/06/12 10:17:38;;;;;;;3.85;2.17;;;24.30;78.70;;;;;;6944023;28;20138;-79
2022/06/12 10:21:05;;;;;;;4.20;2.60;;;24.40;78.30;;;;;;6943916;28;20045;-79
2022/06/12 10:24:28;;;;;;;5.75;2.38;;;24.30;76.60;;;;;;6944289;28;20050;-79
2022/06/12 10:27:54;;;;;;;5.65;1.90;;;24.30;77.40;;;;;;6943907;28;20057;-79
2022/06/12 10:31:33;;;;;;;5.28;2.15;;;24.50;76.20;;;;;;6927221;28;20077;-78
2022/06/12 10:35:14;;;;;;;6.18;2.10;;;24.60;71.10;;;;;;6919019;28;20132;-79
2022/06/12 10:38:37;;;;;;;3.67;1.50;;;24.70;67.10;;;;;;6916451;28;20049;-80
2022/06/12 10:42:04;;;;;;;4.00;1.60;;;24.70;67.70;;;;;;6916308;28;20390;-78
2022/06/12 10:45:29;;;;;;;3.47;1.60;;;24.80;67.90;;;;;;6916584;28;20077;-79
2022/06/12 10:49:01;;;;;;;5.60;2.08;;;24.80;66.80;;;;;;6916028;28;20056;-79
2022/06/12 10:52:23;;;;;;;4.70;2.05;;;24.80;67.20;;;;;;6916093;28;20053;-79
2022/06/12 10:56:17;;;;;;;3.05;1.60;;;24.90;67.80;;;;;;6918910;28;20097;-77
2022/06/12 10:59:44;;;;;;;4.55;1.65;;;25.00;66.40;;;;;;6920693;28;20419;-79
2022/06/12 11:03:19;;;;;;;4.90;2.15;;;25.00;68.30;;;;;;6919691;28;20057;-80
2022/06/12 11:06:49;;;;;;;4.72;1.77;;;25.20;68.80;;;;;;6915332;28;20392;-79
2022/06/12 11:10:30;;;;;;;5.20;1.90;;;25.30;68.30;;;;;;6915897;28;20522;-79
2022/06/12 11:14:19;;;;;;;7.30;2.13;;;25.30;66.20;;;;;;6915525;28;20081;-79
2022/06/12 11:17:59;;;;;;;3.53;1.40;;;25.40;67.50;;;;;;6915596;28;20046;-78
2022/06/12 11:21:36;;;;;;;6.20;1.80;;;25.40;65.90;;;;;;6915634;28;20054;-79
2022/06/12 11:25:16;;;;;;;3.78;1.80;;;25.50;66.50;;;;;;6915600;28;20417;-78
2022/06/12 11:28:58;;;;;;;3.90;1.70;;;25.60;65.50;;;;;;6915753;28;20104;-80
2022/06/12 11:32:33;;;;;;;4.45;1.65;;;25.60;64.70;;;;;;6914184;28;20049;-80
2022/06/12 11:36:07;;;;;;;5.07;1.60;;;25.70;66.50;;;;;;6915271;28;20080;-78
2022/06/12 11:39:44;;;;;;;3.85;1.60;;;25.70;63.00;;;;;;6915495;28;20050;-79
2022/06/12 11:43:16;;;;;;;3.35;1.60;;;25.80;64.70;;;;;;6915156;28;20373;-79
2022/06/12 11:46:46;;;;;;;3.92;1.55;;;25.80;61.50;;;;;;6915104;28;20046;-79
2022/06/12 11:50:28;;;;;;;4.18;2.05;;;25.90;62.40;;;;;;6915234;28;20046;-78
2022/06/12 11:54:24;;;;;;;3.88;1.60;;;26.00;62.70;;;;;;6914968;28;20053;-78
2022/06/12 11:58:01;;;;;;;3.17;1.73;;;26.20;62.10;;;;;;6915044;28;20054;-78
2022/06/12 12:01:35;;;;;;;4.45;1.80;;;26.20;64.70;;;;;;6914934;28;20046;-78
2022/06/12 12:05:28;;;;;;;3.22;1.60;;;26.30;60.70;;;;;;6915039;28;20056;-78
2022/06/12 12:09:09;;;;;;;4.13;1.60;;;26.40;61.40;;;;;;6931490;28;20676;-80
2022/06/12 12:12:40;;;;;;;;;;;26.50;63.80;;;;;;6937247;28;20092;-79
2022/06/12 12:16:08;;;;;;;4.43;1.90;;;26.70;62.70;;;;;;6917665;28;20078;-80
2022/06/12 12:19:38;;;;;;;3.75;1.98;;;26.80;64.20;;;;;;6928930;28;20573;-76
2022/06/12 12:23:05;;;;;;;3.92;1.58;;;26.90;62.10;;;;;;6920137;28;20503;-78
2022/06/12 12:26:33;;;;;;;4.82;1.70;;;27.00;60.40;;;;;;6923024;28;20084;-81
2022/06/12 12:29:58;;;;;;;3.60;1.73;;;26.90;58.40;;;;;;6920260;28;20165;-78
2022/06/12 12:33:20;;;;;;;4.80;1.73;;;27.00;59.60;;;;;;6919359;28;20092;-78
2022/06/12 12:44:16;;;;;;;4.15;1.52;;;27.30;58.20;;;;;;6919814;28;19925;-79
2022/06/12 12:47:39;;;;;;;3.35;1.42;;;27.40;58.60;;;;;;6919155;28;20061;-78
2022/06/12 12:51:00;;;;;;;;;;;27.40;58.30;;;;;;6919606;28;20050;-79
2022/06/12 12:54:22;;;;;;;5.43;1.58;;;27.60;59.80;;;;;;6933570;28;19975;-79
2022/06/12 12:57:46;;;;;;;3.85;1.90;;;27.60;59.80;;;;;;6934503;28;20451;-78
2022/06/12 13:01:19;;;;;;;4.82;2.10;;;27.70;60.50;;;;;;6924937;28;20898;-76
2022/06/12 13:04:43;;;;;;;6.53;3.00;;;27.90;58.80;;;;;;6930910;28;20060;-77
2022/06/12 13:08:24;;;;;;;4.25;2.05;;;28.00;57.80;;;;;;6940053;28;20084;-77
2022/06/12 13:12:25;;;;;;;4.93;1.95;;;28.10;58.40;;;;;;6939925;28;20204;-79
2022/06/12 13:15:55;;;;;;;3.90;1.60;;;28.10;58.40;;;;;;6940865;28;20072;-78
2022/06/12 13:19:45;;;;;;;3.50;2.20;;;28.00;57.90;;;;;;6939250;28;20085;-77
2022/06/12 13:23:27;;;;;;;4.60;1.63;;;27.90;56.10;;;;;;6926251;28;20107;-78
2022/06/12 13:26:50;;;;;;;3.50;1.58;;;28.00;58.50;;;;;;6924963;28;20085;-78
2022/06/12 13:30:20;;;;;;;5.95;1.42;;;27.90;56.20;;;;;;6920477;28;20073;-85
2022/06/12 13:33:42;;;;;;;4.25;1.70;;;28.10;56.60;;;;;;6912940;28;20088;-82
2022/06/12 13:37:06;;;;;;;3.78;1.75;;;28.30;58.50;;;;;;6929993;28;20112;-79
2022/06/12 13:40:34;;;;;;;3.78;1.75;;;28.10;56.70;;;;;;6915770;28;20098;-78
2022/06/12 13:43:57;;;;;;;4.57;1.80;;;28.20;58.30;;;;;;6916688;28;20073;-80
2022/06/12 13:47:33;;;;;;;4.82;1.70;;;28.30;58.20;;;;;;6915903;28;20056;-77
2022/06/12 13:51:05;;;;;;;4.90;1.80;;;28.60;58.80;;;;;;6915748;28;20042;-78
2022/06/12 13:54:29;;;;;;;3.28;1.58;;;28.80;58.60;;;;;;6914556;28;20084;-77
2022/06/12 13:57:53;;;;;;;4.10;2.03;;;28.80;58.20;;;;;;6935214;28;20042;-77
2022/06/12 14:01:21;;;;;;;4.32;2.00;;;28.70;58.20;;;;;;6908221;28;20049;-79
2022/06/12 14:04:56;;;;;;;4.25;2.08;;;29.00;60.10;;;;;;6925570;28;20052;-79
2022/06/12 14:08:19;;;;;;;3.17;1.75;;;29.00;58.80;;;;;;6905489;28;20080;-78
2022/06/12 14:11:45;;;;;;;4.32;2.08;;;29.00;58.50;;;;;;6928994;28;20107;-78
2022/06/12 14:15:27;;;;;;;6.88;2.00;;;29.10;58.50;;;;;;6936483;28;20089;-78
2022/06/12 14:19:02;;;;;;;4.60;1.80;;;29.10;58.10;;;;;;6941102;28;20135;-77
2022/06/12 14:22:24;;;;;;;4.80;2.10;;;29.30;58.50;;;;;;6939553;28;20050;-78
2022/06/12 14:25:51;;;;;;;3.55;2.00;;;29.50;58.60;;;;;;6940968;28;20565;-77
2022/06/12 14:29:43;;;;;;;3.97;1.90;;;29.60;57.60;;;;;;6938345;28;20147;-78
2022/06/12 14:33:36;;;;;;;4.47;2.00;;;29.60;57.00;;;;;;6911643;28;20065;-78
2022/06/12 14:37:01;;;;;;;5.72;2.03;;;29.60;57.90;;;;;;6933559;28;20053;-80
2022/06/12 14:40:35;;;;;;;5.25;2.15;;;29.70;57.00;;;;;;6943164;28;20052;-85
2022/06/12 14:43:57;;;;;;;5.05;2.30;;;29.80;56.50;;;;;;6924650;28;20048;-81
2022/06/12 14:47:24;;;;;;;6.10;2.35;;;29.60;55.70;;;;;;6940562;28;20088;-80
2022/06/12 14:50:47;;;;;;;4.55;2.05;;;29.60;56.70;;;;;;6941663;28;20385;-85
2022/06/12 14:54:09;;;;;;;5.18;2.20;;;29.80;56.90;;;;;;6941646;28;20494;-80
2022/06/12 14:57:31;;;;;;;5.20;2.65;;;29.80;56.40;;;;;;6937077;28;20082;-82
2022/06/12 15:00:53;;;;;;;;;;;29.80;56.20;;;;;;6943609;28;20498;-82
2022/06/12 15:04:17;;;;;;;4.90;2.63;;;29.80;56.20;;;;;;6942905;28;19991;-85
2022/06/12 15:07:39;;;;;;;7.10;2.20;;;30.00;55.90;;;;;;6939511;28;20046;-83
2022/06/12 15:11:01;;;;;;;;;;;30.00;55.70;;;;;;6932025;28;20087;-83
2022/06/12 15:14:23;;;;;;;5.53;2.20;;;30.10;56.10;;;;;;6933841;28;19971;-84
2022/06/12 15:17:45;;;;;;;5.47;2.08;;;30.10;55.70;;;;;;6940421;28;20495;-79
2022/06/12 15:21:17;;;;;;;3.50;2.00;;;30.10;56.10;;;;;;6942744;28;20053;-80
2022/06/12 15:24:39;;;;;;;4.63;2.20;;;30.20;57.10;;;;;;6940988;28;20483;-77
2022/06/12 15:31:40;;;;;;;4.57;2.05;;;30.30;55.40;;;;;;6939428;28;19921;-77
2022/06/12 15:35:06;;;;;;;;;;;30.20;55.90;;;;;;6930763;28;20096;-81
2022/06/12 15:38:29;;;;;;;3.67;2.13;;;30.10;55.70;;;;;;6938945;28;19963;-77
2022/06/12 15:41:52;;;;;;;4.93;2.30;;;30.20;56.00;;;;;;6929308;28;20041;-76
2022/06/12 15:45:15;;;;;;;7.57;2.20;;;30.30;56.10;;;;;;6906406;28;20054;-80
2022/06/12 15:48:37;;;;;;;4.82;2.10;;;30.50;56.30;;;;;;6929275;28;20085;-78
2022/06/12 15:52:00;;;;;;;4.50;2.20;;;30.50;55.40;;;;;;6939182;28;20131;-76
2022/06/12 15:55:25;;;;;;;6.32;2.05;;;30.80;54.40;;;;;;6945960;28;20056;-77
2022/06/12 15:58:48;;;;;;;4.03;2.03;;;31.60;53.00;;;;;;6926130;28;20557;-79
2022/06/12 16:02:17;;;;;;;6.80;2.00;;;32.60;52.50;;;;;;6921845;28;20058;-78
2022/06/12 16:05:39;;;;;;;5.38;2.33;;;32.40;52.20;;;;;;6921383;28;20096;-78
2022/06/12 16:09:01;;;;;;;7.35;1.98;;;31.60;53.40;;;;;;6931997;28;20077;-76
2022/06/12 16:12:24;;;;;;;5.63;2.08;;;31.20;53.80;;;;;;6930725;28;20052;-78
2022/06/12 16:15:46;;;;;;;5.72;2.15;;;31.30;55.70;;;;;;6934685;28;20176;-77
2022/06/12 16:19:10;;;;;;;6.07;2.17;;;31.30;54.90;;;;;;6933953;28;20046;-80
2022/06/12 16:22:32;;;;;;;4.72;2.10;;;31.20;54.00;;;;;;6935750;28;20068;-79
2022/06/12 16:25:54;;;;;;;4.32;1.90;;;31.20;54.40;;;;;;6945385;28;20052;-78
2022/06/12 16:29:18;;;;;;;4.10;2.13;;;31.20;54.60;;;;;;6945500;28;20499;-75
2022/06/12 16:32:41;;;;;;;4.22;1.90;;;31.20;54.90;;;;;;6938915;28;20057;-76
2022/06/12 16:36:07;;;;;;;4.35;2.05;;;31.30;55.50;;;;;;6937167;28;20042;-78
2022/06/12 16:39:30;;;;;;;5.43;2.00;;;31.20;54.60;;;;;;6945956;28;20088;-78
2022/06/12 16:42:52;;;;;;;3.45;1.95;;;31.20;54.40;;;;;;6940596;28;20053;-80
2022/06/12 16:46:15;;;;;;;;;;;31.20;54.80;;;;;;6942877;28;20088;-79
2022/06/12 16:49:37;;;;;;;4.47;1.95;;;31.10;54.70;;;;;;6939967;28;19925;-78
2022/06/12 16:53:01;;;;;;;4.40;2.08;;;31.30;55.40;;;;;;6938520;28;20504;-78
2022/06/12 16:56:23;;;;;;;4.35;2.10;;;31.50;54.40;;;;;;6944402;28;20406;-76
2022/06/12 16:59:47;;;;;;;;;;;31.40;54.90;;;;;;6930457;28;20080;-80
2022/06/12 17:03:10;;;;;;;3.63;1.90;;;31.40;54.40;;;;;;6946547;28;20458;-81
2022/06/12 17:06:37;;;;;;;9.85;4.68;;;31.40;54.40;;;;;;6922967;28;20119;-85
2022/06/12 17:10:00;;;;;;;7.18;3.50;;;31.30;54.10;;;;;;6938728;28;20054;-84
2022/06/12 17:13:22;;;;;;;5.72;2.92;;;31.20;55.50;;;;;;6932027;28;20551;-82
2022/06/12 17:16:44;;;;;;;;;;;31.30;54.60;;;;;;6921772;28;20073;-79
2022/06/12 17:23:49;;;;;;;4.63;2.20;;;31.00;54.70;;;;;;6944227;28;20045;-79
2022/06/12 17:27:12;;;;;;;;;;;30.70;54.80;;;;;;6934839;28;20057;-77
2022/06/12 17:30:34;;;;;;;4.25;2.10;;;30.50;54.90;;;;;;6943626;28;19921;-80
2022/06/12 17:33:56;;;;;;;;;;;30.50;54.90;;;;;;6932697;28;20524;-82
2022/06/12 17:37:23;;;;;;;4.70;2.35;;;30.30;54.80;;;;;;6939409;28;19928;-81
2022/06/12 17:40:45;;;;;;;5.68;2.30;;;30.10;55.30;;;;;;6933233;28;20079;-76
2022/06/12 17:44:07;;;;;;;5.88;2.40;;;29.90;55.90;;;;;;6941406;28;20054;-76
2022/06/12 17:47:30;;;;;;;6.60;2.65;;;29.90;56.30;;;;;;6927177;28;20053;-77
2022/06/12 17:50:52;;;;;;;5.40;2.25;;;29.80;56.50;;;;;;6931128;28;20088;-75
2022/06/12 17:54:17;;;;;;;4.32;2.20;;;29.50;57.10;;;;;;6938984;28;20087;-76
2022/06/12 17:57:40;;;;;;;4.63;2.28;;;29.50;57.30;;;;;;6940026;28;20049;-76
2022/06/12 18:01:02;;;;;;;4.88;2.08;;;29.50;57.70;;;;;;6937515;28;20108;-78
2022/06/12 18:04:24;;;;;;;;;;;29.50;57.40;;;;;;6939782;28;20108;-76
2022/06/12 18:07:47;;;;;;;12.05;6.93;;;29.40;56.60;;;;;;6939901;28;20426;-76
2022/06/12 18:11:12;;;;;;;5.22;2.42;;;29.20;56.60;;;;;;6908712;28;20069;-80
2022/06/12 18:21:55;;;;;;;3.38;1.67;;;28.60;57.50;;;;;;6937083;28;20053;-79
2022/06/12 18:25:18;;;;;;;5.38;2.58;;;28.50;58.10;;;;;;6936693;28;20508;-79
2022/06/12 18:28:42;;;;;;;5.68;2.58;;;28.30;58.80;;;;;;6937096;28;20056;-78
2022/06/12 18:32:05;;;;;;;4.55;2.00;;;28.00;58.60;;;;;;6937798;28;20130;-79
2022/06/12 18:35:28;;;;;;;5.82;1.90;;;27.90;58.80;;;;;;6936090;28;20088;-79
2022/06/12 18:38:50;;;;;;;4.32;1.98;;;27.80;59.60;;;;;;6937930;28;20101;-78
2022/06/12 18:42:13;;;;;;;5.25;1.88;;;27.70;59.90;;;;;;6937922;28;20068;-77
2022/06/12 18:45:37;;;;;;;4.50;2.00;;;27.70;61.60;;;;;;6937273;28;20530;-78
2022/06/12 18:49:00;;;;;;;3.75;1.88;;;27.70;64.30;;;;;;6936931;28;20041;-79